createdAt,value
2022-09-25T00:00:19.707Z,79.61
2022-09-25T00:02:48.569Z,79.47
2022-09-25T00:05:17.975Z,79.38
2022-09-25T00:07:47.549Z,79.36
2022-09-25T00:10:17.663Z,79.33
2022-09-25T00:12:46.665Z,79.27
2022-09-25T00:15:19.752Z,79.39
2022-09-25T00:17:50.354Z,79.38
2022-09-25T00:20:20.565Z,79.28
2022-09-25T00:22:49.359Z,79.45
2022-09-25T00:25:20.172Z,79.53
2022-09-25T00:27:50.132Z,79.50
2022-09-25T00:30:19.681Z,79.54
2022-09-25T00:32:48.682Z,79.53
2022-09-25T00:35:18.700Z,79.63
2022-09-25T00:37:48.861Z,79.68
2022-09-25T00:40:19.427Z,79.74
2022-09-25T00:42:48.067Z,79.82
2022-09-25T00:45:20.929Z,79.95
2022-09-25T00:47:55.337Z,80.07
2022-09-25T00:50:34.666Z,80.09
2022-09-25T00:53:10.571Z,80.05
2022-09-25T00:55:39.824Z,79.96
2022-09-25T00:58:09.144Z,79.85
2022-09-25T01:00:38.015Z,79.80
2022-09-25T01:03:07.158Z,79.78
2022-09-25T01:05:37.812Z,79.85
2022-09-25T01:08:08.332Z,79.89
2022-09-25T01:10:38.107Z,79.93
2022-09-25T01:13:06.966Z,80.08
2022-09-25T01:16:02.334Z,79.98
2022-09-25T01:19:00.824Z,80.07
2022-09-25T01:21:44.738Z,80.09
2022-09-25T01:24:41.147Z,79.95
2022-09-25T01:27:33.641Z,79.87
2022-09-25T01:30:18.851Z,79.84
2022-09-25T01:33:10.139Z,79.87
2022-09-25T01:35:51.933Z,79.91
2022-09-25T01:38:44.587Z,79.99
2022-09-25T01:41:24.923Z,80.09
2022-09-25T01:44:17.765Z,80.30
2022-09-25T01:46:50.759Z,80.42
2022-09-25T01:49:31.919Z,80.54
2022-09-25T01:52:03.265Z,80.53
2022-09-25T01:54:42.231Z,80.63
2022-09-25T01:57:31.700Z,80.67
2022-09-25T02:00:12.006Z,80.84
2022-09-25T02:02:48.138Z,80.88
2022-09-25T02:05:36.065Z,81.05
2022-09-25T02:08:10.068Z,81.19
2022-09-25T02:10:47.268Z,81.28
2022-09-25T02:13:17.522Z,81.28
2022-09-25T02:15:56.861Z,81.27
2022-09-25T02:18:44.664Z,81.34
2022-09-25T02:21:37.488Z,81.28
2022-09-25T02:24:20.733Z,81.25
2022-09-25T02:26:50.379Z,81.50
2022-09-25T02:29:21.923Z,81.75
2022-09-25T02:31:59.670Z,81.88
2022-09-25T02:34:28.976Z,82.01
2022-09-25T02:36:59.436Z,82.12
2022-09-25T02:39:30.321Z,82.23
2022-09-25T02:42:21.297Z,82.30
2022-09-25T02:45:23.456Z,82.26
2022-09-25T02:47:58.160Z,82.35
2022-09-25T02:50:54.081Z,82.44
2022-09-25T02:53:46.656Z,82.45
2022-09-25T02:56:27.175Z,82.44
2022-09-25T02:58:58.558Z,82.50
2022-09-25T03:01:28.816Z,82.57
2022-09-25T03:03:59.136Z,82.59
2022-09-25T03:06:28.662Z,82.71
2022-09-25T03:08:57.595Z,82.76
2022-09-25T03:11:27.109Z,82.84
2022-09-25T03:14:02.360Z,82.97
2022-09-25T03:16:53.160Z,82.96
2022-09-25T03:19:23.085Z,83.07
2022-09-25T03:21:52.035Z,83.00
2022-09-25T03:24:21.866Z,82.89
2022-09-25T03:26:51.252Z,82.78
2022-09-25T03:29:21.116Z,82.90
2022-09-25T03:31:50.334Z,82.89
2022-09-25T03:34:19.279Z,82.82
2022-09-25T03:36:50.566Z,82.73
2022-09-25T03:39:19.695Z,82.76
2022-09-25T03:41:48.802Z,82.81
2022-09-25T03:44:18.633Z,82.81
2022-09-25T03:46:48.580Z,82.88
2022-09-25T03:49:18.156Z,82.88
2022-09-25T03:51:47.871Z,82.88
2022-09-25T03:54:18.795Z,82.82
2022-09-25T03:56:48.765Z,82.93
2022-09-25T03:59:17.688Z,82.87
2022-09-25T04:01:47.256Z,82.85
2022-09-25T04:04:16.033Z,82.95
2022-09-25T04:06:45.642Z,83.01
2022-09-25T04:09:16.628Z,83.10
2022-09-25T04:11:46.380Z,83.25
2022-09-25T04:14:17.396Z,83.12
2022-09-25T04:16:46.913Z,83.08
2022-09-25T04:19:16.352Z,83.08
2022-09-25T04:21:45.830Z,82.96
2022-09-25T04:24:33.582Z,82.94
2022-09-25T04:27:03.516Z,82.99
2022-09-25T04:29:32.627Z,82.99
2022-09-25T04:32:22.538Z,82.87
2022-09-25T04:34:52.648Z,82.79
2022-09-25T04:37:26.122Z,82.80
2022-09-25T04:39:58.575Z,82.77
2022-09-25T04:42:28.406Z,82.69
2022-09-25T04:44:58.355Z,82.65
2022-09-25T04:47:31.716Z,82.63
2022-09-25T04:50:00.790Z,82.52
2022-09-25T04:52:31.519Z,82.51
2022-09-25T04:55:00.896Z,82.59
2022-09-25T04:57:53.975Z,82.53
2022-09-25T05:00:05.667Z,82.53
2022-09-25T05:02:35.122Z,82.38
2022-09-25T05:05:04.851Z,82.25
2022-09-25T05:07:35.302Z,82.12
2022-09-25T05:10:08.410Z,82.01
2022-09-25T05:12:37.894Z,81.88
2022-09-25T05:15:09.923Z,81.81
2022-09-25T05:17:38.678Z,81.81
2022-09-25T05:20:09.436Z,81.73
2022-09-25T05:22:39.503Z,81.72
2022-09-25T05:25:09.981Z,81.64
2022-09-25T05:27:41.320Z,81.49
2022-09-25T05:30:11.400Z,81.35
2022-09-25T05:32:40.616Z,81.19
2022-09-25T05:35:11.661Z,81.14
2022-09-25T05:37:40.661Z,81.22
2022-09-25T05:40:11.181Z,81.12
2022-09-25T05:42:40.610Z,80.93
2022-09-25T05:45:12.099Z,80.83
2022-09-25T05:47:41.748Z,80.79
2022-09-25T05:50:12.962Z,80.64
2022-09-25T05:52:42.459Z,80.45
2022-09-25T05:55:11.577Z,80.44
2022-09-25T05:57:40.530Z,80.40
2022-09-25T06:00:11.170Z,80.39
2022-09-25T06:02:44.655Z,80.42
2022-09-25T06:05:14.647Z,80.43
2022-09-25T06:07:44.038Z,80.42
2022-09-25T06:10:13.546Z,80.28
2022-09-25T06:12:42.663Z,80.17
2022-09-25T06:15:11.860Z,80.00
2022-09-25T06:17:42.336Z,79.89
2022-09-25T06:20:15.854Z,79.79
2022-09-25T06:22:43.989Z,79.68
2022-09-25T06:25:14.643Z,79.55
2022-09-25T06:27:43.825Z,79.40
2022-09-25T06:30:13.722Z,79.26
2022-09-25T06:32:42.496Z,78.99
2022-09-25T06:35:11.537Z,78.91
2022-09-25T06:37:40.926Z,78.90
2022-09-25T06:40:10.308Z,78.55
2022-09-25T06:42:40.732Z,78.35
2022-09-25T06:45:11.312Z,78.27
2022-09-25T06:47:40.657Z,78.07
2022-09-25T06:50:11.741Z,77.88
2022-09-25T06:52:43.787Z,77.78
2022-09-25T06:55:13.082Z,77.61
2022-09-25T06:57:44.005Z,77.25
2022-09-25T07:00:13.822Z,77.01
2022-09-25T07:03:02.311Z,76.78
2022-09-25T07:05:31.054Z,76.53
2022-09-25T07:08:00.442Z,76.43
2022-09-25T07:10:29.529Z,76.15
2022-09-25T07:12:59.417Z,75.91
2022-09-25T07:15:28.375Z,75.68
2022-09-25T07:17:57.369Z,75.54
2022-09-25T07:20:26.432Z,75.28
2022-09-25T07:23:04.413Z,75.01
2022-09-25T07:25:33.140Z,74.88
2022-09-25T07:28:03.233Z,74.30
2022-09-25T07:30:32.374Z,74.10
2022-09-25T07:33:02.423Z,73.59
2022-09-25T07:35:31.689Z,73.31
2022-09-25T07:38:01.125Z,73.18
2022-09-25T07:40:31.999Z,73.01
2022-09-25T07:43:01.965Z,72.37
2022-09-25T07:45:30.994Z,72.24
2022-09-25T07:48:01.331Z,71.66
2022-09-25T07:50:31.784Z,70.29
2022-09-25T07:53:03.286Z,68.74
2022-09-25T07:55:34.315Z,65.87
2022-09-25T07:58:03.491Z,64.87
2022-09-25T08:00:33.287Z,63.24
2022-09-25T08:03:02.348Z,62.16
2022-09-25T08:05:33.312Z,60.79
2022-09-25T08:08:03.696Z,59.10
2022-09-25T08:10:33.215Z,56.72
2022-09-25T08:13:01.927Z,55.60
2022-09-25T08:15:31.303Z,54.27
2022-09-25T08:18:00.618Z,52.91
2022-09-25T08:20:30.404Z,52.62
2022-09-25T08:23:00.676Z,52.07
2022-09-25T08:25:29.593Z,50.51
2022-09-25T08:27:58.327Z,49.94
2022-09-25T08:30:27.462Z,50.07
2022-09-25T08:32:56.677Z,49.80
2022-09-25T08:35:27.866Z,48.46
2022-09-25T08:37:58.591Z,49.17
2022-09-25T08:40:28.600Z,49.22
2022-09-25T08:42:57.678Z,48.60
2022-09-25T08:45:53.960Z,48.08
2022-09-25T08:48:46.672Z,49.12
2022-09-25T08:51:16.364Z,48.37
2022-09-25T08:53:46.192Z,47.73
2022-09-25T08:56:15.295Z,48.14
2022-09-25T08:59:03.885Z,49.02
2022-09-25T09:01:44.527Z,49.11
2022-09-25T09:04:26.221Z,49.78
2022-09-25T09:07:25.253Z,50.15
2022-09-25T09:09:47.353Z,49.12
2022-09-25T09:12:24.327Z,50.32
2022-09-25T09:14:58.935Z,50.95
2022-09-25T09:17:28.177Z,50.91
2022-09-25T09:20:08.722Z,50.08
2022-09-25T09:22:42.762Z,49.98
2022-09-25T09:25:30.961Z,49.80
2022-09-25T09:28:38.959Z,50.14
2022-09-25T09:31:31.542Z,50.27
2022-09-25T09:34:20.661Z,50.46
2022-09-25T09:36:55.015Z,50.18
2022-09-25T09:39:47.160Z,50.99
2022-09-25T09:42:36.476Z,50.97
2022-09-25T09:45:21.390Z,50.62
2022-09-25T09:48:10.464Z,50.65
2022-09-25T09:50:54.820Z,50.56
2022-09-25T09:53:52.301Z,50.83
2022-09-25T09:56:30.050Z,49.79
2022-09-25T09:59:15.660Z,49.79
2022-09-25T10:01:45.583Z,50.08
2022-09-25T10:04:24.630Z,50.15
2022-09-25T10:07:03.626Z,49.26
2022-09-25T10:09:33.188Z,49.38
2022-09-25T10:12:09.257Z,48.70
2022-09-25T10:14:42.801Z,48.78
2022-09-25T10:17:11.609Z,48.95
2022-09-25T10:19:53.233Z,48.42
2022-09-25T10:22:36.903Z,47.37
2022-09-25T10:25:07.775Z,47.88
2022-09-25T10:27:44.011Z,47.03
2022-09-25T10:30:20.102Z,47.39
2022-09-25T10:33:06.997Z,47.22
2022-09-25T10:35:43.491Z,47.30
2022-09-25T10:38:29.637Z,46.72
2022-09-25T10:41:11.828Z,46.57
2022-09-25T10:44:00.706Z,47.06
2022-09-25T10:46:54.108Z,47.22
2022-09-25T10:49:44.183Z,46.32
2022-09-25T10:52:20.923Z,46.20
2022-09-25T10:54:51.467Z,46.27
2022-09-25T10:57:35.485Z,46.50
2022-09-25T11:00:10.509Z,46.13
2022-09-25T11:02:41.802Z,46.38
2022-09-25T11:05:22.209Z,46.12
2022-09-25T11:07:54.793Z,46.40
2022-09-25T11:10:33.941Z,46.68
2022-09-25T11:13:10.397Z,47.03
2022-09-25T11:18:10.532Z,47.20
2022-09-25T11:20:42.141Z,46.88
2022-09-25T11:23:43.222Z,46.24
2022-09-25T11:26:25.925Z,46.29
2022-09-25T11:29:18.852Z,46.16
2022-09-25T11:32:00.877Z,45.74
2022-09-25T11:34:57.697Z,45.38
2022-09-25T11:37:53.443Z,45.07
2022-09-25T11:40:55.137Z,45.38
2022-09-25T11:43:44.516Z,45.43
2022-09-25T11:46:28.452Z,45.81
2022-09-25T11:49:31.101Z,46.13
2022-09-25T11:52:27.638Z,46.47
2022-09-25T11:55:43.373Z,46.92
2022-09-25T11:58:53.705Z,46.69
2022-09-25T12:01:33.912Z,46.93
2022-09-25T12:04:20.692Z,47.38
2022-09-25T12:07:17.220Z,47.82
2022-09-25T12:10:14.167Z,47.76
2022-09-25T12:13:04.086Z,47.70
2022-09-25T12:15:54.630Z,47.05
2022-09-25T12:19:03.269Z,46.94
2022-09-25T12:21:49.669Z,46.51
2022-09-25T12:24:51.087Z,46.47
2022-09-25T12:27:26.001Z,46.70
2022-09-25T12:30:21.190Z,47.07
2022-09-25T12:33:14.778Z,47.04
2022-09-25T12:36:05.015Z,46.90
2022-09-25T12:38:45.469Z,46.08
2022-09-25T12:41:19.958Z,45.51
2022-09-25T12:43:59.106Z,45.90
2022-09-25T12:46:35.877Z,46.13
2022-09-25T12:49:34.518Z,46.71
2022-09-25T12:52:13.028Z,46.89
2022-09-25T12:54:52.887Z,46.91
2022-09-25T12:57:32.777Z,46.69
2022-09-25T13:00:23.966Z,46.56
2022-09-25T13:03:11.436Z,46.56
2022-09-25T13:05:50.446Z,46.60
2022-09-25T13:08:49.372Z,46.93
2022-09-25T13:11:32.879Z,47.33
2022-09-25T13:14:06.069Z,47.25
2022-09-25T13:16:35.504Z,47.43
2022-09-25T13:19:26.398Z,47.43
2022-09-25T13:22:07.620Z,47.46
2022-09-25T13:24:47.071Z,47.67
2022-09-25T13:27:22.267Z,48.08
2022-09-25T13:29:58.254Z,48.60
2022-09-25T13:32:33.811Z,47.96
2022-09-25T13:35:06.453Z,48.29
2022-09-25T13:37:37.263Z,48.42
2022-09-25T13:40:41.517Z,48.60
2022-09-25T13:43:29.354Z,48.65
2022-09-25T13:46:21.535Z,49.18
2022-09-25T13:48:53.489Z,49.17
2022-09-25T13:51:26.528Z,49.03
2022-09-25T13:54:05.212Z,49.42
2022-09-25T13:56:45.824Z,49.43
2022-09-25T13:59:22.319Z,49.34
2022-09-25T14:01:58.780Z,49.25
2022-09-25T14:04:34.089Z,49.11
2022-09-25T14:07:13.298Z,49.34
2022-09-25T14:09:46.209Z,49.79
2022-09-25T14:12:36.287Z,49.70
2022-09-25T14:15:11.399Z,49.85
2022-09-25T14:17:43.563Z,49.73
2022-09-25T14:20:25.799Z,49.90
2022-09-25T14:22:56.723Z,49.80
2022-09-25T14:25:40.576Z,49.75
2022-09-25T14:28:23.314Z,49.90
2022-09-25T14:31:30.624Z,49.82
2022-09-25T14:34:32.222Z,49.78
2022-09-25T14:37:33.331Z,50.03
2022-09-25T14:40:39.140Z,50.34
2022-09-25T14:46:16.770Z,50.50
2022-09-25T14:48:50.644Z,50.43
2022-09-25T14:51:47.218Z,50.71
2022-09-25T14:54:24.325Z,50.72
2022-09-25T14:56:56.294Z,51.10
2022-09-25T14:59:40.209Z,51.55
2022-09-25T15:02:23.274Z,51.42
2022-09-25T15:04:52.597Z,51.74
2022-09-25T15:07:25.735Z,52.17
2022-09-25T15:09:57.695Z,52.75
2022-09-25T15:12:36.153Z,52.45
2022-09-25T15:15:12.651Z,52.49
2022-09-25T15:17:57.230Z,52.61
2022-09-25T15:20:30.868Z,53.37
2022-09-25T15:23:10.122Z,53.47
2022-09-25T15:25:42.582Z,54.03
2022-09-25T15:28:16.782Z,54.41
2022-09-25T15:30:52.160Z,55.16
2022-09-25T15:33:30.312Z,55.80
2022-09-25T15:36:03.311Z,56.48
2022-09-25T15:38:35.513Z,56.51
2022-09-25T15:41:11.481Z,55.71
2022-09-25T15:43:41.798Z,55.59
2022-09-25T15:46:19.300Z,55.92
2022-09-25T15:48:54.988Z,56.35
2022-09-25T15:51:32.894Z,56.79
2022-09-25T15:54:05.479Z,57.29
2022-09-25T15:56:54.533Z,57.38
2022-09-25T15:59:39.980Z,58.11
2022-09-25T16:02:37.666Z,58.88
2022-09-25T16:05:10.354Z,59.58
2022-09-25T16:07:40.719Z,60.28
2022-09-25T16:10:21.461Z,60.84
2022-09-25T16:12:51.536Z,61.74
2022-09-25T16:15:44.471Z,62.33
2022-09-25T16:18:28.884Z,62.69
2022-09-25T16:21:21.864Z,63.24
2022-09-25T16:24:00.880Z,63.87
2022-09-25T16:26:40.234Z,64.53
2022-09-25T16:29:22.599Z,65.03
2022-09-25T16:31:53.591Z,65.46
2022-09-25T16:34:37.166Z,65.86
2022-09-25T16:37:10.461Z,66.24
2022-09-25T16:39:39.901Z,66.77
2022-09-25T16:42:33.176Z,67.22
2022-09-25T16:45:06.372Z,67.58
2022-09-25T16:47:36.421Z,67.97
2022-09-25T16:50:06.110Z,68.37
2022-09-25T16:52:35.539Z,68.89
2022-09-25T16:55:10.089Z,69.30
2022-09-25T16:57:45.816Z,69.66
2022-09-25T17:00:19.199Z,70.12
2022-09-25T17:02:48.859Z,70.49
2022-09-25T17:05:23.343Z,70.80
2022-09-25T17:07:57.172Z,70.96
2022-09-25T17:10:29.162Z,71.08
2022-09-25T17:13:00.681Z,71.28
2022-09-25T17:15:33.131Z,71.46
2022-09-25T17:18:04.006Z,71.64
2022-09-25T17:20:33.761Z,71.78
2022-09-25T17:23:02.884Z,71.93
2022-09-25T17:25:48.251Z,72.05
2022-09-25T17:28:17.289Z,72.17
2022-09-25T17:30:47.009Z,72.39
2022-09-25T17:33:19.112Z,72.55
2022-09-25T17:36:03.073Z,72.58
2022-09-25T17:38:34.290Z,72.75
2022-09-25T17:41:07.677Z,73.06
2022-09-25T17:43:40.477Z,73.34
2022-09-25T17:46:09.811Z,73.68
2022-09-25T17:48:39.342Z,73.94
2022-09-25T17:51:23.828Z,74.21
2022-09-25T17:53:53.628Z,74.39
2022-09-25T17:56:25.310Z,74.48
2022-09-25T17:58:57.083Z,74.52
2022-09-25T18:01:28.977Z,74.67
2022-09-25T18:04:00.586Z,74.88
2022-09-25T18:06:30.606Z,75.05
2022-09-25T18:09:00.155Z,75.26
2022-09-25T18:11:30.034Z,75.42
2022-09-25T18:14:01.774Z,75.53
2022-09-25T18:16:32.506Z,75.58
2022-09-25T18:19:22.319Z,75.75
2022-09-25T18:22:10.825Z,75.99
2022-09-25T18:24:42.082Z,76.17
2022-09-25T18:27:11.915Z,76.47
2022-09-25T18:29:41.942Z,76.59
2022-09-25T18:32:10.960Z,76.78
2022-09-25T18:34:41.359Z,76.87
2022-09-25T18:37:11.884Z,76.90
2022-09-25T18:39:43.005Z,77.03
2022-09-25T18:42:11.813Z,77.17
2022-09-25T18:44:43.258Z,77.39
2022-09-25T18:47:13.308Z,77.69
2022-09-25T18:49:45.195Z,77.77
2022-09-25T18:52:15.634Z,77.95
2022-09-25T18:54:46.106Z,78.23
2022-09-25T18:57:16.093Z,78.50
2022-09-25T18:59:45.728Z,78.75
2022-09-25T19:02:29.293Z,78.85
2022-09-25T19:04:59.590Z,78.90
2022-09-25T19:07:29.784Z,79.10
2022-09-25T19:10:00.874Z,79.25
2022-09-25T19:12:32.382Z,79.40
2022-09-25T19:15:03.673Z,79.53
2022-09-25T19:17:35.958Z,79.51
2022-09-25T19:20:06.524Z,79.53
2022-09-25T19:22:36.195Z,79.58
2022-09-25T19:25:07.429Z,79.51
2022-09-25T19:27:38.353Z,79.50
2022-09-25T19:30:08.375Z,79.46
2022-09-25T19:32:38.315Z,79.47
2022-09-25T19:35:10.279Z,79.42
2022-09-25T19:37:41.584Z,79.47
2022-09-25T19:40:32.143Z,79.56
2022-09-25T19:43:02.019Z,79.71
2022-09-25T19:45:32.002Z,79.82
2022-09-25T19:48:00.822Z,79.97
2022-09-25T19:50:30.544Z,80.04
2022-09-25T19:53:01.056Z,80.00
2022-09-25T19:55:31.481Z,80.09
2022-09-25T19:58:00.333Z,80.17
2022-09-25T20:00:29.002Z,80.25
2022-09-25T20:02:58.328Z,80.34
2022-09-25T20:05:27.252Z,80.36
2022-09-25T20:07:56.910Z,80.34
2022-09-25T20:10:27.078Z,80.35
2022-09-25T20:12:56.809Z,80.40
2022-09-25T20:15:27.370Z,80.34
2022-09-25T20:17:56.962Z,80.34
2022-09-25T20:20:28.392Z,80.37
2022-09-25T20:22:58.071Z,80.43
2022-09-25T20:25:27.753Z,80.56
2022-09-25T20:27:57.269Z,80.90
2022-09-25T20:30:26.373Z,81.20
2022-09-25T20:32:56.857Z,81.25
2022-09-25T20:35:26.351Z,81.16
2022-09-25T20:37:56.828Z,81.05
2022-09-25T20:40:27.561Z,81.06
2022-09-25T20:42:56.960Z,81.25
2022-09-25T20:45:26.119Z,81.44
2022-09-25T20:47:55.600Z,81.42
2022-09-25T20:50:24.291Z,81.41
2022-09-25T20:52:55.339Z,81.44
2022-09-25T20:55:25.509Z,81.56
2022-09-25T20:57:54.412Z,81.73
2022-09-25T21:00:24.334Z,81.84
2022-09-25T21:02:53.799Z,81.96
2022-09-25T21:05:22.743Z,82.00
2022-09-25T21:07:52.893Z,82.00
2022-09-25T21:10:23.531Z,81.94
2022-09-25T21:12:53.046Z,81.97
2022-09-25T21:15:22.429Z,81.99
2022-09-25T21:17:54.056Z,81.99
2022-09-25T21:20:23.256Z,81.92
2022-09-25T21:22:52.120Z,81.73
2022-09-25T21:25:21.270Z,81.52
2022-09-25T21:27:51.375Z,81.39
2022-09-25T21:30:20.512Z,81.32
2022-09-25T21:32:49.644Z,81.25
2022-09-25T21:35:18.652Z,81.20
2022-09-25T21:37:47.615Z,81.20
2022-09-25T21:40:17.422Z,81.21
2022-09-25T21:42:46.148Z,81.22
2022-09-25T21:45:15.276Z,81.23
2022-09-25T21:47:45.456Z,81.25
2022-09-25T21:50:15.637Z,81.34
2022-09-25T21:52:44.865Z,81.29
2022-09-25T21:55:14.393Z,81.34
2022-09-25T21:57:44.766Z,81.42
2022-09-25T22:00:16.574Z,81.40
2022-09-25T22:02:48.041Z,81.47
2022-09-25T22:05:17.142Z,81.49
2022-09-25T22:07:47.003Z,81.51
2022-09-25T22:10:16.448Z,81.55
2022-09-25T22:12:46.883Z,81.66
2022-09-25T22:15:17.848Z,81.76
2022-09-25T22:17:46.962Z,81.82
2022-09-25T22:20:16.497Z,81.91
2022-09-25T22:22:48.557Z,81.97
2022-09-25T22:25:19.238Z,82.02
2022-09-25T22:27:48.335Z,82.05
2022-09-25T22:30:17.629Z,82.17
2022-09-25T22:32:47.189Z,82.20
2022-09-25T22:35:17.245Z,82.30
2022-09-25T22:37:46.798Z,82.43
2022-09-25T22:40:16.418Z,82.54
2022-09-25T22:42:45.736Z,82.59
2022-09-25T22:45:17.106Z,82.66
2022-09-25T22:47:46.246Z,82.79
2022-09-25T22:50:15.105Z,82.83
2022-09-25T22:52:43.994Z,82.75
2022-09-25T22:55:13.541Z,82.85
2022-09-25T22:57:42.755Z,82.88
2022-09-25T23:00:13.304Z,82.68
2022-09-25T23:02:43.298Z,82.53
2022-09-25T23:05:12.317Z,82.59
2022-09-25T23:07:42.757Z,82.65
2022-09-25T23:10:12.116Z,82.67
2022-09-25T23:12:42.306Z,82.50
2022-09-25T23:15:11.357Z,82.40
2022-09-25T23:17:41.082Z,82.36
2022-09-25T23:20:10.340Z,82.23
2022-09-25T23:22:38.931Z,82.04
2022-09-25T23:25:09.012Z,81.90
2022-09-25T23:27:38.980Z,81.72
2022-09-25T23:30:09.550Z,81.52
2022-09-25T23:32:39.278Z,81.47
2022-09-25T23:35:10.293Z,81.35
2022-09-25T23:37:39.532Z,81.14
2022-09-25T23:40:15.241Z,80.94
2022-09-25T23:42:41.680Z,80.80
2022-09-25T23:45:12.322Z,80.71
2022-09-25T23:47:43.229Z,80.68
2022-09-25T23:50:12.372Z,80.61
2022-09-25T23:52:41.483Z,80.55
2022-09-25T23:55:10.974Z,80.41
2022-09-25T23:57:39.920Z,80.29
